Westfield, NJ (07091)

10:06 AM EDT on October 30, 2014 (GMT -0400)
Murray Hill | Change Station
CLOSE
Current Station
Personal Weather Station
Location: Murray Hill, NJ
Elevation: 518 ft
Nearby Weather Stations

Elev 518 ft 40.69 °N, 74.39 °W | Updated 8 minutes ago

Partly Cloudy
Partly Cloudy
42.9 °F
Feels Like 43 °F
N
0.0
Wind Variable Wind from SSE
Gusts 0.0 mph

Today
High -- | Low -- °F
--% Chance of Precip.
Yesterday
High -- | Low -- °F
Precip. -- in
7:25 AM 5:56 PM
Waxing Crescent, 44% visible
Pressure 30.01 in
Visibility 8.0 miles
Clouds Few 5000 ft
Windchill 43 °F
Dew Point 43 °F
Humidity 99%
Rainfall 0.00 in
Snow Depth Not available.
UV 2 out of 12
Pollen .90 out of 12
Air Quality Not available.
Flu Activity Not available.
METAR KMMU 301345Z 33006KT 8SM FEW050 11/09 A3001

More Conditions Fewer Conditions

Pressure 30.01 in
Visibility 8.0 miles
Clouds Few 5000 ft
Windchill 43 °F
Dew Point 43 °F
Humidity 99%
Rainfall 0.00 in
Snow Depth Not available.
UV 2 out of 12
Pollen .90 out of 12
Air Quality Not available.
Flu Activity Not available.
METAR KMMU 301345Z 33006KT 8SM FEW050 11/09 A3001

More Conditions Fewer Conditions

10-Day Weather Forecast

Almanac

Astronomy

Oct. 30, 2014 Rise Set
Actual Time
Civil Twilight
Nautical Twilight
Astronomical Twilight
Moon
Length of Visible Light
Length of Day
Tomorrow will be .
, % of the Moon is Illuminated

Today's Extremes

State Highs State Lows

Community

WunderPhotos

Upload Photos

1,766,358 photos uploaded!

WunderBlogs® & News

Nearby

Air Quality

  Air Quality AQ Index Pollutant
Not available.

Snow Depth

Station Depth Elevation

Earthquake Activity

City Distance Mag. Time & Date
Minimum magnitude displayed is 2.5.

Coastal Water Temperatures

Place Temperature

Nearby Weather Stations